createdAt,value
2022-12-03T00:00:21.813Z,1022.65
2022-12-03T00:01:21.765Z,1022.67
2022-12-03T00:02:21.787Z,1022.63
2022-12-03T00:03:21.773Z,1022.60
2022-12-03T00:04:21.632Z,1022.68
2022-12-03T00:05:21.653Z,1022.63
2022-12-03T00:06:21.542Z,1022.63
2022-12-03T00:07:21.512Z,1022.65
2022-12-03T00:08:21.471Z,1022.64
2022-12-03T00:09:21.420Z,1022.64
2022-12-03T00:10:21.410Z,1022.65
2022-12-03T00:11:21.422Z,1022.61
2022-12-03T00:12:21.349Z,1022.66
2022-12-03T00:13:21.277Z,1022.66
2022-12-03T00:14:21.231Z,1022.62
2022-12-03T00:15:21.196Z,1022.61
2022-12-03T00:16:21.268Z,1022.62
2022-12-03T00:17:21.185Z,1022.63
2022-12-03T00:18:21.077Z,1022.64
2022-12-03T00:19:21.034Z,1022.53
2022-12-03T00:20:21.011Z,1022.68
2022-12-03T00:21:20.966Z,1022.67
2022-12-03T00:22:20.942Z,1022.60
2022-12-03T00:23:20.946Z,1022.56
2022-12-03T00:24:20.851Z,1022.63
2022-12-03T00:25:20.822Z,1022.63
2022-12-03T00:26:20.763Z,1022.63
2022-12-03T00:27:20.772Z,1022.65
2022-12-03T00:28:20.709Z,1022.63
2022-12-03T00:29:20.643Z,1022.62
2022-12-03T00:30:20.604Z,1022.64
2022-12-03T00:31:20.641Z,1022.65
2022-12-03T00:32:20.624Z,1022.62
2022-12-03T00:33:20.487Z,1022.60
2022-12-03T00:34:20.441Z,1022.64
2022-12-03T00:35:20.399Z,1022.65
2022-12-03T00:36:20.373Z,1022.60
2022-12-03T00:37:20.319Z,1022.64
2022-12-03T00:38:20.384Z,1022.62
2022-12-03T00:39:20.270Z,1022.64
2022-12-03T00:40:20.236Z,1022.58
2022-12-03T00:41:20.166Z,1022.63
2022-12-03T00:42:20.122Z,1022.62
2022-12-03T00:43:20.177Z,1022.59
2022-12-03T00:44:20.054Z,1022.59
2022-12-03T00:45:20.012Z,1022.57
2022-12-03T00:46:21.756Z,1022.58
2022-12-03T00:47:19.945Z,1022.57
2022-12-03T00:48:19.907Z,1022.57
2022-12-03T00:49:19.928Z,1022.58
2022-12-03T00:50:19.813Z,1022.54
2022-12-03T00:51:19.772Z,1022.57
2022-12-03T00:52:19.765Z,1022.57
2022-12-03T00:53:19.690Z,1022.61
2022-12-03T00:54:19.681Z,1022.59
2022-12-03T00:55:19.661Z,1022.58
2022-12-03T00:56:19.576Z,1022.57
2022-12-03T00:57:19.533Z,1022.53
2022-12-03T00:58:19.503Z,1022.54
2022-12-03T00:59:19.495Z,1022.61
2022-12-03T01:00:19.414Z,1022.56
2022-12-03T01:01:19.451Z,1022.55
2022-12-03T01:02:19.413Z,1022.56
2022-12-03T01:03:19.297Z,1022.60
2022-12-03T01:04:19.326Z,1022.54
2022-12-03T01:05:19.303Z,1022.57
2022-12-03T01:06:19.188Z,1022.57
2022-12-03T01:07:19.222Z,1022.55
2022-12-03T01:08:19.093Z,1022.64
2022-12-03T01:09:19.063Z,1022.56
2022-12-03T01:10:19.028Z,1022.54
2022-12-03T01:11:19.004Z,1022.60
2022-12-03T01:12:18.945Z,1022.56
2022-12-03T01:13:18.975Z,1022.54
2022-12-03T01:14:18.868Z,1022.61
2022-12-03T01:15:18.827Z,1022.56
2022-12-03T01:16:18.873Z,1022.60
2022-12-03T01:17:18.747Z,1022.63
2022-12-03T01:18:18.707Z,1022.63
2022-12-03T01:19:18.732Z,1022.63
2022-12-03T01:20:18.624Z,1022.61
2022-12-03T01:21:18.597Z,1022.63
2022-12-03T01:22:18.561Z,1022.65
2022-12-03T01:23:18.511Z,1022.62
2022-12-03T01:24:18.490Z,1022.62
2022-12-03T01:25:18.510Z,1022.64
2022-12-03T01:26:18.393Z,1022.57
2022-12-03T01:27:18.362Z,1022.66
2022-12-03T01:28:18.378Z,1022.60
2022-12-03T01:29:18.288Z,1022.57
2022-12-03T01:30:18.283Z,1022.61
2022-12-03T01:31:18.278Z,1022.60
2022-12-03T01:32:18.182Z,1022.63
2022-12-03T01:33:18.113Z,1022.58
2022-12-03T01:34:18.137Z,1022.54
2022-12-03T01:35:18.048Z,1022.55
2022-12-03T01:36:18.003Z,1022.57
2022-12-03T01:37:17.959Z,1022.60
2022-12-03T01:38:17.928Z,1022.57
2022-12-03T01:39:17.956Z,1022.54
2022-12-03T01:40:17.858Z,1022.58
2022-12-03T01:41:17.808Z,1022.59
2022-12-03T01:42:17.783Z,1022.55
2022-12-03T01:43:17.727Z,1022.54
2022-12-03T01:44:17.745Z,1022.58
2022-12-03T01:45:17.653Z,1022.51
2022-12-03T01:46:17.639Z,1022.57
2022-12-03T01:47:17.568Z,1022.55
2022-12-03T01:48:17.530Z,1022.56
2022-12-03T01:49:17.497Z,1022.54
2022-12-03T01:50:17.526Z,1022.57
2022-12-03T01:51:17.419Z,1022.57
2022-12-03T01:52:17.382Z,1022.55
2022-12-03T01:53:17.340Z,1022.52
2022-12-03T01:54:17.294Z,1022.55
2022-12-03T01:55:17.260Z,1022.52
2022-12-03T01:56:17.293Z,1022.56
2022-12-03T01:57:17.197Z,1022.55
2022-12-03T01:58:17.143Z,1022.54
2022-12-03T01:59:17.108Z,1022.57
2022-12-03T02:00:17.056Z,1022.60
2022-12-03T02:01:17.111Z,1022.58
2022-12-03T02:02:17.089Z,1022.53
2022-12-03T02:03:16.954Z,1022.53
2022-12-03T02:04:16.985Z,1022.49
2022-12-03T02:05:16.859Z,1022.51
2022-12-03T02:06:16.841Z,1022.48
2022-12-03T02:07:16.783Z,1022.48
2022-12-03T02:08:16.854Z,1022.47
2022-12-03T02:09:16.707Z,1022.51
2022-12-03T02:10:16.662Z,1022.53
2022-12-03T02:11:16.615Z,1022.55
2022-12-03T02:12:16.588Z,1022.56
2022-12-03T02:13:16.554Z,1022.52
2022-12-03T02:14:16.579Z,1022.50
2022-12-03T02:15:16.463Z,1022.55
2022-12-03T02:16:16.564Z,1022.53
2022-12-03T02:17:16.410Z,1022.55
2022-12-03T02:18:16.347Z,1022.53
2022-12-03T02:19:16.374Z,1022.53
2022-12-03T02:20:16.272Z,1022.52
2022-12-03T02:21:16.236Z,1022.48
2022-12-03T02:22:16.203Z,1022.54
2022-12-03T02:23:16.162Z,1022.55
2022-12-03T02:24:16.136Z,1022.53
2022-12-03T02:25:16.131Z,1022.52
2022-12-03T02:26:16.047Z,1022.55
2022-12-03T02:27:15.995Z,1022.54
2022-12-03T02:28:15.964Z,1022.53
2022-12-03T02:29:15.939Z,1022.51
2022-12-03T02:30:15.883Z,1022.50
2022-12-03T02:31:15.966Z,1022.48
2022-12-03T02:32:15.817Z,1022.53
2022-12-03T02:33:15.754Z,1022.50
2022-12-03T02:34:15.723Z,1022.47
2022-12-03T02:35:15.707Z,1022.51
2022-12-03T02:36:15.639Z,1022.51
2022-12-03T02:37:15.670Z,1022.49
2022-12-03T02:38:15.565Z,1022.52
2022-12-03T02:39:15.526Z,1022.53
2022-12-03T02:40:15.481Z,1022.49
2022-12-03T02:41:15.450Z,1022.49
2022-12-03T02:42:15.412Z,1022.52
2022-12-03T02:43:15.422Z,1022.48
2022-12-03T02:44:15.326Z,1022.53
2022-12-03T02:45:15.284Z,1022.51
2022-12-03T02:46:15.338Z,1022.49
2022-12-03T02:47:15.271Z,1022.51
2022-12-03T02:48:15.199Z,1022.49
2022-12-03T02:49:15.153Z,1022.51
2022-12-03T02:50:15.113Z,1022.53
2022-12-03T02:51:15.083Z,1022.50
2022-12-03T02:52:15.070Z,1022.51
2022-12-03T02:53:14.968Z,1022.54
2022-12-03T02:54:14.933Z,1022.55
2022-12-03T02:55:14.902Z,1022.49
2022-12-03T02:56:14.865Z,1022.47
2022-12-03T02:57:14.894Z,1022.50
2022-12-03T02:58:14.776Z,1022.49
2022-12-03T02:59:14.755Z,1022.53
2022-12-03T03:00:14.691Z,1022.49
2022-12-03T03:01:14.720Z,1022.46
2022-12-03T03:02:14.683Z,1022.50
2022-12-03T03:03:14.630Z,1022.53
2022-12-03T03:04:14.538Z,1022.52
2022-12-03T03:05:14.511Z,1022.52
2022-12-03T03:06:14.461Z,1022.50
2022-12-03T03:07:14.442Z,1022.54
2022-12-03T03:08:14.441Z,1022.59
2022-12-03T03:09:14.412Z,1022.48
2022-12-03T03:10:14.326Z,1022.54
2022-12-03T03:11:14.272Z,1022.51
2022-12-03T03:12:14.226Z,1022.50
2022-12-03T03:13:14.194Z,1022.49
2022-12-03T03:14:14.162Z,1022.48
2022-12-03T03:15:14.165Z,1022.50
2022-12-03T03:16:14.198Z,1022.48
2022-12-03T03:17:14.028Z,1022.47
2022-12-03T03:18:13.993Z,1022.46
2022-12-03T03:19:13.949Z,1022.43
2022-12-03T03:20:13.974Z,1022.44
2022-12-03T03:21:13.864Z,1022.41
2022-12-03T03:22:13.830Z,1022.46
2022-12-03T03:23:13.806Z,1022.44
2022-12-03T03:24:13.750Z,1022.39
2022-12-03T03:25:13.749Z,1022.37
2022-12-03T03:26:13.742Z,1022.38
2022-12-03T03:27:13.641Z,1022.34
2022-12-03T03:28:13.597Z,1022.37
2022-12-03T03:29:13.620Z,1022.34
2022-12-03T03:30:13.513Z,1022.32
2022-12-03T03:31:13.495Z,1022.30
2022-12-03T03:32:13.558Z,1022.32
2022-12-03T03:33:13.399Z,1022.32
2022-12-03T03:34:13.359Z,1022.30
2022-12-03T03:35:13.327Z,1022.28
2022-12-03T03:36:13.283Z,1022.29
2022-12-03T03:37:13.240Z,1022.25
2022-12-03T03:38:13.255Z,1022.24
2022-12-03T03:39:13.171Z,1022.27
2022-12-03T03:40:13.132Z,1022.26
2022-12-03T03:41:13.081Z,1022.27
2022-12-03T03:42:13.061Z,1022.29
2022-12-03T03:43:12.994Z,1022.24
2022-12-03T03:44:13.035Z,1022.23
2022-12-03T03:45:12.930Z,1022.24
2022-12-03T03:46:12.944Z,1022.25
2022-12-03T03:47:12.850Z,1022.25
2022-12-03T03:48:12.868Z,1022.22
2022-12-03T03:49:12.759Z,1022.23
2022-12-03T03:50:12.965Z,1022.22
2022-12-03T03:51:12.684Z,1022.22
2022-12-03T03:52:12.645Z,1022.15
2022-12-03T03:53:12.599Z,1022.17
2022-12-03T03:54:12.563Z,1022.16
2022-12-03T03:55:12.546Z,1022.24
2022-12-03T03:56:12.546Z,1022.13
2022-12-03T03:57:12.447Z,1022.16
2022-12-03T03:58:12.417Z,1022.18
2022-12-03T03:59:12.363Z,1022.15
2022-12-03T04:00:12.331Z,1022.15
2022-12-03T04:01:12.459Z,1022.19
2022-12-03T04:02:12.247Z,1022.09
2022-12-03T04:03:12.214Z,1022.14
2022-12-03T04:04:12.229Z,1022.08
2022-12-03T04:05:12.150Z,1022.13
2022-12-03T04:06:12.157Z,1022.07
2022-12-03T04:07:12.059Z,1022.07
2022-12-03T04:08:12.136Z,1022.06
2022-12-03T04:09:11.976Z,1021.99
2022-12-03T04:10:11.941Z,1022.03
2022-12-03T04:11:11.973Z,1022.00
2022-12-03T04:12:11.861Z,1021.98
2022-12-03T04:13:11.811Z,1022.00
2022-12-03T04:14:11.786Z,1022.00
2022-12-03T04:15:11.746Z,1021.97
2022-12-03T04:16:11.757Z,1021.95
2022-12-03T04:17:11.726Z,1021.97
2022-12-03T04:18:11.617Z,1021.98
2022-12-03T04:19:11.592Z,1021.92
2022-12-03T04:20:11.552Z,1021.95
2022-12-03T04:21:11.511Z,1021.97
2022-12-03T04:22:11.479Z,1021.92
2022-12-03T04:23:11.494Z,1021.98
2022-12-03T04:24:11.401Z,1021.95
2022-12-03T04:25:11.364Z,1021.98
2022-12-03T04:26:11.303Z,1021.93
2022-12-03T04:27:11.262Z,1021.95
2022-12-03T04:28:11.252Z,1021.94
2022-12-03T04:29:11.251Z,1021.95
2022-12-03T04:30:11.143Z,1021.96
2022-12-03T04:31:11.165Z,1021.92
2022-12-03T04:32:11.081Z,1021.97
2022-12-03T04:33:11.025Z,1021.94
2022-12-03T04:34:10.996Z,1021.96
2022-12-03T04:35:11.061Z,1021.96
2022-12-03T04:36:10.920Z,1021.91
2022-12-03T04:37:10.885Z,1021.92
2022-12-03T04:38:10.844Z,1021.97
2022-12-03T04:39:10.792Z,1021.91
2022-12-03T04:40:10.769Z,1021.93
2022-12-03T04:41:10.768Z,1021.96
2022-12-03T04:42:10.689Z,1021.94
2022-12-03T04:43:10.649Z,1021.95
2022-12-03T04:44:10.590Z,1021.96
2022-12-03T04:45:10.571Z,1022.02
2022-12-03T04:46:10.624Z,1021.92
2022-12-03T04:47:10.468Z,1021.92
2022-12-03T04:48:10.501Z,1021.93
2022-12-03T04:49:10.399Z,1021.95
2022-12-03T04:50:10.361Z,1021.92
2022-12-03T04:51:10.323Z,1021.92
2022-12-03T04:52:10.298Z,1021.94
2022-12-03T04:53:10.255Z,1021.90
2022-12-03T04:54:10.297Z,1021.86
2022-12-03T04:55:10.196Z,1021.86
2022-12-03T04:56:10.142Z,1021.89
2022-12-03T04:57:10.134Z,1021.89
2022-12-03T04:58:10.052Z,1021.89
2022-12-03T04:59:15.577Z,1021.88
2022-12-03T05:00:10.052Z,1021.86
2022-12-03T05:01:09.954Z,1021.85
2022-12-03T05:02:10.027Z,1021.89
2022-12-03T05:03:09.849Z,1021.89
2022-12-03T05:04:09.813Z,1021.88
2022-12-03T05:05:09.842Z,1021.86
2022-12-03T05:06:09.739Z,1021.83
2022-12-03T05:07:09.689Z,1021.87
2022-12-03T05:08:09.772Z,1021.82
2022-12-03T05:09:09.612Z,1021.82
2022-12-03T05:10:09.640Z,1021.81
2022-12-03T05:11:09.548Z,1021.85
2022-12-03T05:12:09.496Z,1021.85
2022-12-03T05:13:09.453Z,1021.84
2022-12-03T05:14:09.413Z,1021.81
2022-12-03T05:15:09.445Z,1021.85
2022-12-03T05:16:09.443Z,1021.78
2022-12-03T05:17:09.379Z,1021.76
2022-12-03T05:18:09.261Z,1021.81
2022-12-03T05:19:09.264Z,1021.72
2022-12-03T05:20:09.241Z,1021.75
2022-12-03T05:21:09.143Z,1021.78
2022-12-03T05:22:09.101Z,1021.73
2022-12-03T05:23:09.069Z,1021.71
2022-12-03T05:24:09.031Z,1021.77
2022-12-03T05:25:09.048Z,1021.76
2022-12-03T05:26:08.960Z,1021.73
2022-12-03T05:27:08.908Z,1021.73
2022-12-03T05:28:08.879Z,1021.72
2022-12-03T05:29:08.828Z,1021.70
2022-12-03T05:30:08.788Z,1021.72
2022-12-03T05:31:08.861Z,1021.75
2022-12-03T05:32:08.720Z,1021.75
2022-12-03T05:33:08.664Z,1021.75
2022-12-03T05:34:08.633Z,1021.72
2022-12-03T05:35:08.598Z,1021.74
2022-12-03T05:36:08.561Z,1021.72
2022-12-03T05:37:08.587Z,1021.75
2022-12-03T05:38:08.465Z,1021.73
2022-12-03T05:39:08.454Z,1021.71
2022-12-03T05:40:08.392Z,1021.70
2022-12-03T05:41:08.367Z,1021.71
2022-12-03T05:42:08.416Z,1021.72
2022-12-03T05:43:08.281Z,1021.72
2022-12-03T05:44:08.232Z,1021.75
2022-12-03T05:45:08.203Z,1021.70
2022-12-03T05:46:08.196Z,1021.70
2022-12-03T05:47:08.110Z,1021.68
2022-12-03T05:48:08.161Z,1021.72
2022-12-03T05:49:08.042Z,1021.69
2022-12-03T05:50:07.998Z,1021.67
2022-12-03T05:51:07.961Z,1021.70
2022-12-03T05:52:07.927Z,1021.61
2022-12-03T05:53:07.869Z,1021.65
2022-12-03T05:54:07.901Z,1021.65
2022-12-03T05:55:07.805Z,1021.64
2022-12-03T05:56:07.764Z,1021.66
2022-12-03T05:57:07.728Z,1021.68
2022-12-03T05:58:07.743Z,1021.63
2022-12-03T05:59:07.637Z,1021.69
2022-12-03T06:00:07.602Z,1021.64
2022-12-03T06:01:07.572Z,1021.65
2022-12-03T06:02:07.550Z,1021.71
2022-12-03T06:03:07.660Z,1021.62
2022-12-03T06:04:07.477Z,1021.65
2022-12-03T06:05:07.398Z,1021.66
2022-12-03T06:06:07.367Z,1021.65
2022-12-03T06:07:12.367Z,1021.62
2022-12-03T06:08:07.383Z,1021.62
2022-12-03T06:09:07.239Z,1021.63
2022-12-03T06:10:07.217Z,1021.66
2022-12-03T06:11:07.161Z,1021.65
2022-12-03T06:12:07.132Z,1021.66
2022-12-03T06:13:07.150Z,1021.71
2022-12-03T06:14:07.048Z,1021.70
2022-12-03T06:15:07.014Z,1021.66
2022-12-03T06:16:07.118Z,1021.70
2022-12-03T06:17:06.931Z,1021.73
2022-12-03T06:18:06.904Z,1021.71
2022-12-03T06:19:06.908Z,1021.72
2022-12-03T06:20:06.810Z,1021.72
2022-12-03T06:21:06.782Z,1021.73
2022-12-03T06:22:06.730Z,1021.75
2022-12-03T06:23:06.703Z,1021.72
2022-12-03T06:24:06.661Z,1021.69
2022-12-03T06:25:07.249Z,1021.68
2022-12-03T06:26:06.582Z,1021.69
2022-12-03T06:27:06.544Z,1021.71
2022-12-03T06:28:06.510Z,1021.64
2022-12-03T06:29:06.461Z,1021.67
2022-12-03T06:30:06.426Z,1021.67
2022-12-03T06:31:06.475Z,1021.65
2022-12-03T06:32:06.343Z,1021.65
2022-12-03T06:33:06.309Z,1021.64
2022-12-03T06:34:06.265Z,1021.65
2022-12-03T06:35:06.236Z,1021.64
2022-12-03T06:36:06.232Z,1021.65
2022-12-03T06:37:06.194Z,1021.67
2022-12-03T06:38:06.108Z,1021.67
2022-12-03T06:39:06.071Z,1021.63
2022-12-03T06:40:06.034Z,1021.66
2022-12-03T06:41:06.057Z,1021.63
2022-12-03T06:42:05.950Z,1021.65
2022-12-03T06:43:05.926Z,1021.65
2022-12-03T06:44:05.886Z,1021.68
2022-12-03T06:45:05.834Z,1021.70
2022-12-03T06:46:05.814Z,1021.67
2022-12-03T06:47:05.810Z,1021.67
2022-12-03T06:48:05.718Z,1021.68
2022-12-03T06:49:05.687Z,1021.67
2022-12-03T06:50:05.654Z,1021.67
2022-12-03T06:51:05.596Z,1021.67
2022-12-03T06:52:05.589Z,1021.66
2022-12-03T06:53:05.741Z,1021.66
2022-12-03T06:54:05.480Z,1021.66
2022-12-03T06:55:05.436Z,1021.65
2022-12-03T06:56:05.398Z,1021.59
2022-12-03T06:57:05.358Z,1021.68
2022-12-03T06:58:05.371Z,1021.70
2022-12-03T06:59:05.281Z,1021.64
2022-12-03T07:00:05.234Z,1021.68
2022-12-03T07:01:05.209Z,1021.62
2022-12-03T07:02:05.301Z,1021.65
2022-12-03T07:03:05.279Z,1021.65
2022-12-03T07:04:05.080Z,1021.63
2022-12-03T07:05:05.044Z,1021.64
2022-12-03T07:06:05.001Z,1021.64
2022-12-03T07:07:04.962Z,1021.63
2022-12-03T07:08:05.093Z,1021.65
2022-12-03T07:09:04.885Z,1021.66
2022-12-03T07:10:04.844Z,1021.64
2022-12-03T07:11:04.806Z,1021.59
2022-12-03T07:12:04.761Z,1021.64
2022-12-03T07:13:04.730Z,1021.59
2022-12-03T07:14:05.885Z,1021.59
2022-12-03T07:15:04.647Z,1021.61
2022-12-03T07:16:04.653Z,1021.59
2022-12-03T07:17:04.572Z,1021.59
2022-12-03T07:18:04.527Z,1021.61
2022-12-03T07:19:04.493Z,1021.62
2022-12-03T07:20:04.501Z,1021.65
2022-12-03T07:21:04.412Z,1021.63
2022-12-03T07:22:04.373Z,1021.64
2022-12-03T07:23:04.330Z,1021.63
2022-12-03T07:24:04.294Z,1021.66
2022-12-03T07:25:04.308Z,1021.65
2022-12-03T07:26:04.228Z,1021.61
2022-12-03T07:27:04.192Z,1021.63
2022-12-03T07:28:04.135Z,1021.65
2022-12-03T07:29:04.099Z,1021.66
2022-12-03T07:30:04.048Z,1021.62
2022-12-03T07:31:04.430Z,1021.61
2022-12-03T07:32:03.970Z,1021.62
2022-12-03T07:33:03.935Z,1021.63
2022-12-03T07:34:03.915Z,1021.61
2022-12-03T07:35:03.854Z,1021.61
2022-12-03T07:36:03.822Z,1021.60
2022-12-03T07:37:03.841Z,1021.61
2022-12-03T07:38:03.749Z,1021.62
2022-12-03T07:39:03.704Z,1021.57
2022-12-03T07:40:03.659Z,1021.61
2022-12-03T07:41:03.626Z,1021.60
2022-12-03T07:42:03.586Z,1021.62
2022-12-03T07:43:03.625Z,1021.59
2022-12-03T07:44:06.502Z,1021.56
2022-12-03T07:45:03.479Z,1021.60
2022-12-03T07:46:03.511Z,1021.59
2022-12-03T07:47:03.513Z,1021.61
2022-12-03T07:48:03.348Z,1021.62
2022-12-03T07:49:03.313Z,1021.58
2022-12-03T07:50:03.265Z,1021.62
2022-12-03T07:51:03.229Z,1021.60
2022-12-03T07:52:03.256Z,1021.62
2022-12-03T07:53:03.205Z,1021.65
2022-12-03T07:54:03.112Z,1021.62
2022-12-03T07:55:03.085Z,1021.56
2022-12-03T07:56:03.036Z,1021.56
2022-12-03T07:57:03.053Z,1021.57
2022-12-03T07:58:02.978Z,1021.57
2022-12-03T07:59:02.911Z,1021.57
2022-12-03T08:00:02.868Z,1021.58
2022-12-03T08:01:02.941Z,1021.56
2022-12-03T08:02:02.967Z,1021.55
2022-12-03T08:03:02.753Z,1021.59
2022-12-03T08:04:03.298Z,1021.58
2022-12-03T08:05:02.685Z,1021.60
2022-12-03T08:06:02.627Z,1021.55
2022-12-03T08:07:02.610Z,1021.56
2022-12-03T08:08:02.675Z,1021.51
2022-12-03T08:09:02.521Z,1021.52
2022-12-03T08:10:02.474Z,1021.52
2022-12-03T08:11:02.442Z,1021.48
2022-12-03T08:12:02.397Z,1021.47
2022-12-03T08:13:02.354Z,1021.48
2022-12-03T08:14:02.374Z,1021.47
2022-12-03T08:15:02.281Z,1021.44
2022-12-03T08:16:02.292Z,1021.45
2022-12-03T08:17:02.213Z,1021.45
2022-12-03T08:18:02.176Z,1021.47
2022-12-03T08:19:02.124Z,1021.44
2022-12-03T08:20:02.158Z,1021.41
2022-12-03T08:21:02.042Z,1021.40
2022-12-03T08:22:02.001Z,1021.42
2022-12-03T08:23:01.961Z,1021.44
2022-12-03T08:24:01.922Z,1021.42
2022-12-03T08:25:01.909Z,1021.38
2022-12-03T08:26:01.903Z,1021.41
2022-12-03T08:27:01.813Z,1021.41
2022-12-03T08:28:01.771Z,1021.38
2022-12-03T08:29:01.791Z,1021.36
2022-12-03T08:30:01.694Z,1021.35
2022-12-03T08:31:01.649Z,1021.38
2022-12-03T08:32:01.663Z,1021.34
2022-12-03T08:33:01.569Z,1021.34
2022-12-03T08:34:01.618Z,1021.32
2022-12-03T08:35:01.490Z,1021.34
2022-12-03T08:36:01.457Z,1021.38
2022-12-03T08:37:01.427Z,1021.32
2022-12-03T08:38:01.372Z,1021.39
2022-12-03T08:39:01.335Z,1021.32
2022-12-03T08:40:01.353Z,1021.29
2022-12-03T08:41:01.254Z,1021.33
2022-12-03T08:42:01.217Z,1021.32
2022-12-03T08:43:01.179Z,1021.33
2022-12-03T08:44:01.142Z,1021.38
2022-12-03T08:45:01.251Z,1021.36
2022-12-03T08:46:01.080Z,1021.36
2022-12-03T08:47:01.023Z,1021.36
2022-12-03T08:48:00.987Z,1021.40
2022-12-03T08:49:00.937Z,1021.40
2022-12-03T08:50:00.909Z,1021.39
2022-12-03T08:51:00.916Z,1021.35
2022-12-03T08:52:00.822Z,1021.37
2022-12-03T08:53:00.782Z,1021.35
2022-12-03T08:54:02.138Z,1021.37
2022-12-03T08:55:00.709Z,1021.35
2022-12-03T08:56:00.670Z,1021.36
2022-12-03T08:57:00.684Z,1021.37
2022-12-03T08:58:00.588Z,1021.41
2022-12-03T08:59:01.282Z,1021.42
2022-12-03T09:00:00.517Z,1021.41
2022-12-03T09:01:00.519Z,1021.34
2022-12-03T09:02:00.430Z,1021.40
2022-12-03T09:03:00.456Z,1021.36
2022-12-03T09:04:00.404Z,1021.37
2022-12-03T09:05:00.308Z,1021.37
2022-12-03T09:06:00.277Z,1021.34
2022-12-03T09:07:00.245Z,1021.37
2022-12-03T09:08:00.360Z,1021.35
2022-12-03T09:09:06.409Z,1021.34
2022-12-03T09:10:00.123Z,1021.39
2022-12-03T09:11:00.081Z,1021.36
2022-12-03T09:12:00.041Z,1021.36
2022-12-03T09:13:00.001Z,1021.42
2022-12-03T09:13:59.965Z,1021.37
2022-12-03T09:15:00.236Z,1021.37
2022-12-03T09:15:59.882Z,1021.36
2022-12-03T09:16:59.964Z,1021.34
2022-12-03T09:17:59.805Z,1021.36
2022-12-03T09:18:59.769Z,1021.32
2022-12-03T09:19:59.727Z,1021.33
2022-12-03T09:20:59.766Z,1021.33
2022-12-03T09:21:59.651Z,1021.29
2022-12-03T09:22:59.604Z,1021.30
2022-12-03T09:23:59.575Z,1021.30
2022-12-03T09:24:59.533Z,1021.28
2022-12-03T09:25:59.497Z,1021.25
2022-12-03T09:26:59.523Z,1021.27
2022-12-03T09:27:59.419Z,1021.27
2022-12-03T09:28:59.384Z,1021.25
2022-12-03T09:29:59.341Z,1021.24
2022-12-03T09:30:59.300Z,1021.25
2022-12-03T09:31:59.325Z,1021.20
2022-12-03T09:32:59.281Z,1021.25
2022-12-03T09:33:59.175Z,1021.22
2022-12-03T09:34:59.160Z,1021.26
2022-12-03T09:35:59.107Z,1021.19
2022-12-03T09:36:59.077Z,1021.24
2022-12-03T09:37:59.031Z,1021.21
2022-12-03T09:38:59.041Z,1021.25
2022-12-03T09:39:58.948Z,1021.24
2022-12-03T09:40:58.919Z,1021.29
2022-12-03T09:41:58.873Z,1021.22
2022-12-03T09:42:58.839Z,1021.20
2022-12-03T09:44:07.000Z,1021.17
2022-12-03T09:44:58.814Z,1021.22
2022-12-03T09:45:58.778Z,1021.21
2022-12-03T09:46:58.680Z,1021.20
2022-12-03T09:47:58.641Z,1021.20
2022-12-03T09:48:58.610Z,1021.22
2022-12-03T09:49:58.561Z,1021.16
2022-12-03T09:50:58.989Z,1021.18
2022-12-03T09:51:58.495Z,1021.18
2022-12-03T09:52:58.453Z,1021.17
2022-12-03T09:53:58.415Z,1021.22
2022-12-03T09:54:58.747Z,1021.16
2022-12-03T09:55:58.333Z,1021.15
2022-12-03T09:56:58.355Z,1021.13
2022-12-03T09:57:58.311Z,1021.11
2022-12-03T09:58:58.225Z,1021.10
2022-12-03T09:59:58.185Z,1021.11
2022-12-03T10:00:58.197Z,1021.07
2022-12-03T10:01:58.177Z,1021.03
2022-12-03T10:02:58.129Z,1021.00
2022-12-03T10:03:58.029Z,1021.01
2022-12-03T10:04:58.237Z,1020.98
2022-12-03T10:05:57.948Z,1021.00
2022-12-03T10:06:57.908Z,1020.97
2022-12-03T10:07:57.956Z,1020.95
2022-12-03T10:08:57.909Z,1020.97
2022-12-03T10:09:57.814Z,1020.99
2022-12-03T10:10:57.760Z,1020.95
2022-12-03T10:11:57.752Z,1020.97
2022-12-03T10:12:57.691Z,1020.98
2022-12-03T10:13:57.642Z,1020.99
2022-12-03T10:14:57.671Z,1020.99
2022-12-03T10:15:57.566Z,1020.96
2022-12-03T10:16:57.580Z,1020.97
2022-12-03T10:17:57.497Z,1020.99
2022-12-03T10:18:57.450Z,1020.95
2022-12-03T10:19:57.417Z,1020.94
2022-12-03T10:20:57.432Z,1020.94
2022-12-03T10:21:57.339Z,1020.86
2022-12-03T10:22:57.298Z,1020.94
2022-12-03T10:23:57.266Z,1020.93
2022-12-03T10:24:57.215Z,1020.87
2022-12-03T10:25:57.252Z,1020.85
2022-12-03T10:26:57.148Z,1020.85
2022-12-03T10:27:57.100Z,1020.84
2022-12-03T10:28:57.068Z,1020.84
2022-12-03T10:29:57.031Z,1020.83
2022-12-03T10:30:57.014Z,1020.84
2022-12-03T10:31:57.001Z,1020.80
2022-12-03T10:32:56.906Z,1020.81
2022-12-03T10:33:56.867Z,1020.78
2022-12-03T10:34:56.838Z,1020.77
2022-12-03T10:35:56.797Z,1020.75
2022-12-03T10:36:56.749Z,1020.73
2022-12-03T10:37:58.556Z,1020.74
2022-12-03T10:38:56.678Z,1020.73
2022-12-03T10:39:56.813Z,1020.74
2022-12-03T10:40:56.597Z,1020.77
2022-12-03T10:41:56.563Z,1020.74
2022-12-03T10:42:56.528Z,1020.73
2022-12-03T10:43:56.575Z,1020.74
2022-12-03T10:44:56.438Z,1020.75
2022-12-03T10:46:01.928Z,1020.74
2022-12-03T10:46:56.498Z,1020.78
2022-12-03T10:47:56.379Z,1020.79
2022-12-03T10:48:56.306Z,1020.76
2022-12-03T10:49:56.329Z,1020.80
2022-12-03T10:50:56.235Z,1020.80
2022-12-03T10:51:56.197Z,1020.80
2022-12-03T10:52:56.144Z,1020.77
2022-12-03T10:53:56.126Z,1020.78
2022-12-03T10:54:56.309Z,1020.79
2022-12-03T10:55:56.078Z,1020.80
2022-12-03T10:56:55.981Z,1020.80
2022-12-03T10:57:55.950Z,1020.78
2022-12-03T10:58:55.915Z,1020.79
2022-12-03T10:59:55.881Z,1020.80
2022-12-03T11:00:55.852Z,1020.78
2022-12-03T11:01:55.924Z,1020.80
2022-12-03T11:02:57.177Z,1020.79
2022-12-03T11:03:55.815Z,1020.77
2022-12-03T11:04:55.970Z,1020.77
2022-12-03T11:05:55.645Z,1020.74
2022-12-03T11:06:55.601Z,1020.78
2022-12-03T11:07:55.698Z,1020.78
2022-12-03T11:08:58.685Z,1020.77
2022-12-03T11:09:57.398Z,1020.72
2022-12-03T11:10:55.461Z,1020.73
2022-12-03T11:11:55.421Z,1020.72
2022-12-03T11:12:55.382Z,1020.69
2022-12-03T11:13:55.394Z,1020.68
2022-12-03T11:14:55.697Z,1020.71
2022-12-03T11:15:55.324Z,1020.68
2022-12-03T11:16:55.214Z,1020.68
2022-12-03T11:17:55.168Z,1020.65
2022-12-03T11:18:55.145Z,1020.65
2022-12-03T11:19:55.144Z,1020.64
2022-12-03T11:20:55.055Z,1020.64
2022-12-03T11:21:55.014Z,1020.64
2022-12-03T11:22:54.983Z,1020.59
2022-12-03T11:23:55.008Z,1020.63
2022-12-03T11:24:55.232Z,1020.61
2022-12-03T11:25:54.932Z,1020.59
2022-12-03T11:26:54.822Z,1020.59
2022-12-03T11:27:54.791Z,1020.56
2022-12-03T11:28:54.752Z,1020.55
2022-12-03T11:29:54.713Z,1020.55
2022-12-03T11:30:54.719Z,1020.58
2022-12-03T11:31:54.700Z,1020.52
2022-12-03T11:32:54.596Z,1020.49
2022-12-03T11:33:54.554Z,1020.50
2022-12-03T11:34:54.775Z,1020.45
2022-12-03T11:35:54.527Z,1020.44
2022-12-03T11:37:01.815Z,1020.47
2022-12-03T11:37:54.468Z,1020.40
2022-12-03T11:38:54.368Z,1020.41
2022-12-03T11:39:54.785Z,1020.38
2022-12-03T11:40:54.291Z,1020.38
2022-12-03T11:41:54.252Z,1020.37
2022-12-03T11:42:54.217Z,1020.33
2022-12-03T11:43:54.215Z,1020.34
2022-12-03T11:44:54.137Z,1020.36
2022-12-03T11:45:56.287Z,1020.40
2022-12-03T11:46:54.162Z,1020.34
2022-12-03T11:47:54.054Z,1020.33
2022-12-03T11:48:53.990Z,1020.35
2022-12-03T11:49:54.292Z,1020.32
2022-12-03T11:50:53.913Z,1020.38
2022-12-03T11:51:53.885Z,1020.34
2022-12-03T11:52:53.839Z,1020.37
2022-12-03T11:53:53.800Z,1020.39
2022-12-03T11:54:53.750Z,1020.32
2022-12-03T11:55:53.794Z,1020.30
2022-12-03T11:56:53.666Z,1020.27
2022-12-03T11:57:53.624Z,1020.26
2022-12-03T11:58:53.601Z,1020.21
2022-12-03T11:59:53.799Z,1020.25
2022-12-03T12:00:53.552Z,1020.18
2022-12-03T12:01:53.551Z,1020.23
2022-12-03T12:02:53.458Z,1020.25
2022-12-03T12:03:53.520Z,1020.20
2022-12-03T12:04:53.367Z,1020.20